sensor_id;sensor_type;location;lat;lon;timestamp;temperature;humidity
3684;DHT22;1858;48.716;9.648;2023-02-15T00:00:24;0.20;1.00
3684;DHT22;1858;48.716;9.648;2023-02-15T00:02:53;0.20;1.00
3684;DHT22;1858;48.716;9.648;2023-02-15T00:05:21;0.30;1.00
3684;DHT22;1858;48.716;9.648;2023-02-15T00:07:49;0.20;1.00
3684;DHT22;1858;48.716;9.648;2023-02-15T00:10:18;0.20;1.00
3684;DHT22;1858;48.716;9.648;2023-02-15T00:12:46;0.30;1.00
3684;DHT22;1858;48.716;9.648;2023-02-15T00:15:15;0.40;1.00
3684;DHT22;1858;48.716;9.648;2023-02-15T00:18:02;0.40;1.00
3684;DHT22;1858;48.716;9.648;2023-02-15T00:20:31;0.30;1.00
3684;DHT22;1858;48.716;9.648;2023-02-15T00:22:59;0.40;1.00
3684;DHT22;1858;48.716;9.648;2023-02-15T00:25:47;0.30;1.00
3684;DHT22;1858;48.716;9.648;2023-02-15T00:28:16;0.20;1.00
3684;DHT22;1858;48.716;9.648;2023-02-15T00:30:44;0.20;1.00
3684;DHT22;1858;48.716;9.648;2023-02-15T00:33:13;0.20;1.00
3684;DHT22;1858;48.716;9.648;2023-02-15T00:35:41;0.30;24.20
3684;DHT22;1858;48.716;9.648;2023-02-15T00:38:09;0.20;99.90
3684;DHT22;1858;48.716;9.648;2023-02-15T00:40:38;0.30;99.90
3684;DHT22;1858;48.716;9.648;2023-02-15T00:43:26;0.40;99.90
3684;DHT22;1858;48.716;9.648;2023-02-15T00:45:54;0.30;99.90
3684;DHT22;1858;48.716;9.648;2023-02-15T00:48:23;0.50;99.90
3684;DHT22;1858;48.716;9.648;2023-02-15T00:50:59;0.60;99.90
3684;DHT22;1858;48.716;9.648;2023-02-15T00:53:28;0.60;99.90
3684;DHT22;1858;48.716;9.648;2023-02-15T00:55:57;0.60;99.90
3684;DHT22;1858;48.716;9.648;2023-02-15T00:58:26;0.70;99.90
3684;DHT22;1858;48.716;9.648;2023-02-15T01:00:54;0.70;99.90
3684;DHT22;1858;48.716;9.648;2023-02-15T01:03:42;0.60;99.90
3684;DHT22;1858;48.716;9.648;2023-02-15T01:06:11;0.60;99.90
3684;DHT22;1858;48.716;9.648;2023-02-15T01:08:40;0.70;99.90
3684;DHT22;1858;48.716;9.648;2023-02-15T01:11:27;0.80;67.30
3684;DHT22;1858;48.716;9.648;2023-02-15T01:13:57;0.80;1.00
3684;DHT22;1858;48.716;9.648;2023-02-15T01:16:27;0.80;1.00
3684;DHT22;1858;48.716;9.648;2023-02-15T01:18:56;0.70;1.00
3684;DHT22;1858;48.716;9.648;2023-02-15T01:21:25;0.60;1.00
3684;DHT22;1858;48.716;9.648;2023-02-15T01:23:54;0.60;1.00
3684;DHT22;1858;48.716;9.648;2023-02-15T01:26:22;0.60;1.00
3684;DHT22;1858;48.716;9.648;2023-02-15T01:28:51;0.60;1.00
3684;DHT22;1858;48.716;9.648;2023-02-15T01:31:20;0.50;1.00
3684;DHT22;1858;48.716;9.648;2023-02-15T01:33:48;0.40;1.00
3684;DHT22;1858;48.716;9.648;2023-02-15T01:36:17;0.40;1.00
3684;DHT22;1858;48.716;9.648;2023-02-15T01:39:05;0.50;1.00
3684;DHT22;1858;48.716;9.648;2023-02-15T01:41:34;0.40;1.00
3684;DHT22;1858;48.716;9.648;2023-02-15T01:44:03;0.40;1.00
3684;DHT22;1858;48.716;9.648;2023-02-15T01:46:38;0.40;1.00
3684;DHT22;1858;48.716;9.648;2023-02-15T01:49:15;0.50;1.00
3684;DHT22;1858;48.716;9.648;2023-02-15T01:51:45;0.60;1.00
3684;DHT22;1858;48.716;9.648;2023-02-15T01:54:27;0.60;1.00
3684;DHT22;1858;48.716;9.648;2023-02-15T01:57:00;0.40;1.00
3684;DHT22;1858;48.716;9.648;2023-02-15T01:59:30;0.40;1.00
3684;DHT22;1858;48.716;9.648;2023-02-15T02:02:00;0.30;1.00
3684;DHT22;1858;48.716;9.648;2023-02-15T02:07:26;0.20;1.00
3684;DHT22;1858;48.716;9.648;2023-02-15T02:09:54;0.20;1.00
3684;DHT22;1858;48.716;9.648;2023-02-15T02:12:24;0.20;1.00
3684;DHT22;1858;48.716;9.648;2023-02-15T02:14:53;0.30;1.00
3684;DHT22;1858;48.716;9.648;2023-02-15T02:17:34;0.30;1.00
3684;DHT22;1858;48.716;9.648;2023-02-15T02:26:25;0.20;1.00
3684;DHT22;1858;48.716;9.648;2023-02-15T02:29:16;0.10;1.00
3684;DHT22;1858;48.716;9.648;2023-02-15T02:35:11;0.10;1.00
3684;DHT22;1858;48.716;9.648;2023-02-15T02:38:01;0.10;1.00
3684;DHT22;1858;48.716;9.648;2023-02-15T02:40:42;0.20;17.40
3684;DHT22;1858;48.716;9.648;2023-02-15T02:46:13;0.30;42.80
3684;DHT22;1858;48.716;9.648;2023-02-15T02:48:40;0.30;19.70
3684;DHT22;1858;48.716;9.648;2023-02-15T02:51:09;0.30;1.00
3684;DHT22;1858;48.716;9.648;2023-02-15T02:53:37;0.30;1.00
3684;DHT22;1858;48.716;9.648;2023-02-15T02:59:58;0.20;1.00
3684;DHT22;1858;48.716;9.648;2023-02-15T03:01:45;0.30;1.00
3684;DHT22;1858;48.716;9.648;2023-02-15T03:04:13;0.30;1.00
3684;DHT22;1858;48.716;9.648;2023-02-15T03:07:01;0.30;1.00
3684;DHT22;1858;48.716;9.648;2023-02-15T03:09:36;0.20;1.00
3684;DHT22;1858;48.716;9.648;2023-02-15T03:12:04;0.20;1.00
3684;DHT22;1858;48.716;9.648;2023-02-15T03:14:32;0.00;1.00
3684;DHT22;1858;48.716;9.648;2023-02-15T03:17:01;0.00;1.00
3684;DHT22;1858;48.716;9.648;2023-02-15T03:19:33;-0.10;1.00
3684;DHT22;1858;48.716;9.648;2023-02-15T03:24:57;-0.10;1.00
3684;DHT22;1858;48.716;9.648;2023-02-15T03:27:27;-0.10;1.00
3684;DHT22;1858;48.716;9.648;2023-02-15T03:29:58;-0.10;1.00
3684;DHT22;1858;48.716;9.648;2023-02-15T03:32:29;-0.10;1.00
3684;DHT22;1858;48.716;9.648;2023-02-15T03:34:59;-0.10;1.00
3684;DHT22;1858;48.716;9.648;2023-02-15T03:37:43;-0.10;1.00
3684;DHT22;1858;48.716;9.648;2023-02-15T03:40:37;0.00;1.00
3684;DHT22;1858;48.716;9.648;2023-02-15T03:46:39;0.00;1.00
3684;DHT22;1858;48.716;9.648;2023-02-15T03:49:17;0.00;1.00
3684;DHT22;1858;48.716;9.648;2023-02-15T03:51:47;-0.10;1.00
3684;DHT22;1858;48.716;9.648;2023-02-15T03:54:31;-0.10;1.00
3684;DHT22;1858;48.716;9.648;2023-02-15T04:00:26;0.00;1.00
3684;DHT22;1858;48.716;9.648;2023-02-15T04:03:33;0.00;1.00
3684;DHT22;1858;48.716;9.648;2023-02-15T04:06:03;0.00;1.00
3684;DHT22;1858;48.716;9.648;2023-02-15T04:08:31;-0.10;1.00
3684;DHT22;1858;48.716;9.648;2023-02-15T04:11:18;-0.20;1.00
3684;DHT22;1858;48.716;9.648;2023-02-15T04:13:46;-0.20;1.00
3684;DHT22;1858;48.716;9.648;2023-02-15T04:16:14;-0.20;1.00
3684;DHT22;1858;48.716;9.648;2023-02-15T04:18:44;-0.20;1.00
3684;DHT22;1858;48.716;9.648;2023-02-15T04:21:30;-0.10;1.00
3684;DHT22;1858;48.716;9.648;2023-02-15T04:24:17;-0.10;1.00
3684;DHT22;1858;48.716;9.648;2023-02-15T04:27:04;-0.20;1.00
3684;DHT22;1858;48.716;9.648;2023-02-15T04:29:33;-0.10;1.00
3684;DHT22;1858;48.716;9.648;2023-02-15T04:32:20;-0.20;1.00
3684;DHT22;1858;48.716;9.648;2023-02-15T04:34:49;-0.20;1.00
3684;DHT22;1858;48.716;9.648;2023-02-15T04:37:17;-0.30;1.00
3684;DHT22;1858;48.716;9.648;2023-02-15T04:39:46;-0.20;1.00
3684;DHT22;1858;48.716;9.648;2023-02-15T04:42:14;-0.20;1.00
3684;DHT22;1858;48.716;9.648;2023-02-15T04:44:43;-0.20;1.00
3684;DHT22;1858;48.716;9.648;2023-02-15T04:47:11;-0.20;1.00
3684;DHT22;1858;48.716;9.648;2023-02-15T04:49:40;-0.20;1.00
3684;DHT22;1858;48.716;9.648;2023-02-15T04:52:08;-0.20;1.00
3684;DHT22;1858;48.716;9.648;2023-02-15T04:54:37;-0.20;1.00
3684;DHT22;1858;48.716;9.648;2023-02-15T04:57:06;-0.20;1.00
3684;DHT22;1858;48.716;9.648;2023-02-15T04:59:35;-0.30;1.00
3684;DHT22;1858;48.716;9.648;2023-02-15T05:02:03;-0.30;1.00
3684;DHT22;1858;48.716;9.648;2023-02-15T05:04:32;-0.30;1.00
3684;DHT22;1858;48.716;9.648;2023-02-15T05:07:01;-0.40;1.00
3684;DHT22;1858;48.716;9.648;2023-02-15T05:09:30;-0.50;1.00
3684;DHT22;1858;48.716;9.648;2023-02-15T05:11:58;-0.50;1.00
3684;DHT22;1858;48.716;9.648;2023-02-15T05:14:27;-0.50;1.00
3684;DHT22;1858;48.716;9.648;2023-02-15T05:16:55;-0.50;1.00
3684;DHT22;1858;48.716;9.648;2023-02-15T05:19:25;-0.30;1.00
3684;DHT22;1858;48.716;9.648;2023-02-15T05:21:53;-0.20;1.00
3684;DHT22;1858;48.716;9.648;2023-02-15T05:24:22;-0.30;1.00
3684;DHT22;1858;48.716;9.648;2023-02-15T05:27:12;-0.40;1.00
3684;DHT22;1858;48.716;9.648;2023-02-15T05:29:58;-0.40;1.00
3684;DHT22;1858;48.716;9.648;2023-02-15T05:32:27;-0.50;1.00
3684;DHT22;1858;48.716;9.648;2023-02-15T05:34:55;-0.60;1.00
3684;DHT22;1858;48.716;9.648;2023-02-15T05:37:23;-0.70;1.00
3684;DHT22;1858;48.716;9.648;2023-02-15T05:39:52;-0.70;1.00
3684;DHT22;1858;48.716;9.648;2023-02-15T05:42:20;-0.70;1.00
3684;DHT22;1858;48.716;9.648;2023-02-15T05:45:08;-0.80;1.00
3684;DHT22;1858;48.716;9.648;2023-02-15T05:47:37;-0.80;1.00
3684;DHT22;1858;48.716;9.648;2023-02-15T05:50:06;-0.70;1.00
3684;DHT22;1858;48.716;9.648;2023-02-15T05:52:35;-0.80;1.00
3684;DHT22;1858;48.716;9.648;2023-02-15T05:55:04;-0.70;1.00
3684;DHT22;1858;48.716;9.648;2023-02-15T05:57:33;-0.60;1.00
3684;DHT22;1858;48.716;9.648;2023-02-15T06:00:03;-0.70;1.00
3684;DHT22;1858;48.716;9.648;2023-02-15T06:05:24;-0.80;1.00
3684;DHT22;1858;48.716;9.648;2023-02-15T06:07:52;-0.80;1.00
3684;DHT22;1858;48.716;9.648;2023-02-15T06:10:21;-0.70;1.00
3684;DHT22;1858;48.716;9.648;2023-02-15T06:12:49;-0.70;1.00
3684;DHT22;1858;48.716;9.648;2023-02-15T06:15:21;-0.50;1.00
3684;DHT22;1858;48.716;9.648;2023-02-15T06:17:50;-0.40;1.00
3684;DHT22;1858;48.716;9.648;2023-02-15T06:20:18;-0.40;10.60
3684;DHT22;1858;48.716;9.648;2023-02-15T06:22:47;-0.40;56.10
3684;DHT22;1858;48.716;9.648;2023-02-15T06:25:15;-0.40;79.50
3684;DHT22;1858;48.716;9.648;2023-02-15T06:27:44;-0.30;99.90
3684;DHT22;1858;48.716;9.648;2023-02-15T06:30:13;-0.30;90.60
3684;DHT22;1858;48.716;9.648;2023-02-15T06:32:41;-0.40;5.50
3684;DHT22;1858;48.716;9.648;2023-02-15T06:35:10;-0.50;1.00
3684;DHT22;1858;48.716;9.648;2023-02-15T06:37:38;-0.50;1.00
3684;DHT22;1858;48.716;9.648;2023-02-15T06:40:11;-0.50;1.00
3684;DHT22;1858;48.716;9.648;2023-02-15T06:42:39;-0.40;1.00
3684;DHT22;1858;48.716;9.648;2023-02-15T06:45:09;-0.50;1.00
3684;DHT22;1858;48.716;9.648;2023-02-15T06:47:41;-0.40;1.00
3684;DHT22;1858;48.716;9.648;2023-02-15T06:50:10;-0.70;1.00
3684;DHT22;1858;48.716;9.648;2023-02-15T06:52:38;-0.60;1.00
3684;DHT22;1858;48.716;9.648;2023-02-15T06:55:07;-0.60;1.00
3684;DHT22;1858;48.716;9.648;2023-02-15T06:57:35;-0.60;1.00
3684;DHT22;1858;48.716;9.648;2023-02-15T07:00:05;-0.60;1.00
3684;DHT22;1858;48.716;9.648;2023-02-15T07:02:34;-0.50;1.00
3684;DHT22;1858;48.716;9.648;2023-02-15T07:05:02;-0.50;1.00
3684;DHT22;1858;48.716;9.648;2023-02-15T07:07:32;-0.50;1.00
3684;DHT22;1858;48.716;9.648;2023-02-15T07:10:01;-0.50;1.00
3684;DHT22;1858;48.716;9.648;2023-02-15T07:12:29;-0.40;1.00
3684;DHT22;1858;48.716;9.648;2023-02-15T07:18:10;0.00;1.00
3684;DHT22;1858;48.716;9.648;2023-02-15T07:20:40;0.10;1.00
3684;DHT22;1858;48.716;9.648;2023-02-15T07:23:08;0.30;1.00
3684;DHT22;1858;48.716;9.648;2023-02-15T07:25:37;0.30;1.00
3684;DHT22;1858;48.716;9.648;2023-02-15T07:28:05;0.50;1.00
3684;DHT22;1858;48.716;9.648;2023-02-15T07:30:34;0.70;1.00
3684;DHT22;1858;48.716;9.648;2023-02-15T07:33:03;0.90;1.00
3684;DHT22;1858;48.716;9.648;2023-02-15T07:35:51;1.10;1.00
3684;DHT22;1858;48.716;9.648;2023-02-15T07:41:15;1.40;99.90
3684;DHT22;1858;48.716;9.648;2023-02-15T07:43:44;1.60;99.90
3684;DHT22;1858;48.716;9.648;2023-02-15T07:46:15;1.90;99.90
3684;DHT22;1858;48.716;9.648;2023-02-15T07:51:33;2.60;99.90
3684;DHT22;1858;48.716;9.648;2023-02-15T07:54:21;2.80;99.90
3684;DHT22;1858;48.716;9.648;2023-02-15T07:56:49;2.80;99.90
3684;DHT22;1858;48.716;9.648;2023-02-15T07:59:18;3.00;71.60
3684;DHT22;1858;48.716;9.648;2023-02-15T08:02:11;3.10;45.00
3684;DHT22;1858;48.716;9.648;2023-02-15T08:04:36;3.30;34.10
3684;DHT22;1858;48.716;9.648;2023-02-15T08:07:04;3.60;16.90
3684;DHT22;1858;48.716;9.648;2023-02-15T08:09:32;3.70;7.10
3684;DHT22;1858;48.716;9.648;2023-02-15T08:12:01;3.60;4.50
3684;DHT22;1858;48.716;9.648;2023-02-15T08:14:36;3.70;1.00
3684;DHT22;1858;48.716;9.648;2023-02-15T08:17:05;3.90;1.00
3684;DHT22;1858;48.716;9.648;2023-02-15T08:19:47;4.10;1.00
3684;DHT22;1858;48.716;9.648;2023-02-15T08:22:41;4.30;1.00
3684;DHT22;1858;48.716;9.648;2023-02-15T08:25:08;4.70;1.00
3684;DHT22;1858;48.716;9.648;2023-02-15T08:27:36;4.80;1.00
3684;DHT22;1858;48.716;9.648;2023-02-15T08:30:05;5.20;1.00
3684;DHT22;1858;48.716;9.648;2023-02-15T08:32:53;5.50;1.00
3684;DHT22;1858;48.716;9.648;2023-02-15T08:35:23;6.10;1.00
3684;DHT22;1858;48.716;9.648;2023-02-15T08:37:51;6.50;1.00
3684;DHT22;1858;48.716;9.648;2023-02-15T08:40:20;6.70;1.00
3684;DHT22;1858;48.716;9.648;2023-02-15T08:42:48;6.80;1.00
3684;DHT22;1858;48.716;9.648;2023-02-15T08:45:17;6.80;1.00
3684;DHT22;1858;48.716;9.648;2023-02-15T08:47:45;7.20;1.00
3684;DHT22;1858;48.716;9.648;2023-02-15T08:50:15;7.70;1.00
3684;DHT22;1858;48.716;9.648;2023-02-15T08:55:35;8.80;1.00
3684;DHT22;1858;48.716;9.648;2023-02-15T08:58:05;9.50;1.00
3684;DHT22;1858;48.716;9.648;2023-02-15T09:00:33;10.20;1.00
3684;DHT22;1858;48.716;9.648;2023-02-15T09:03:21;11.00;99.90
3684;DHT22;1858;48.716;9.648;2023-02-15T09:05:50;12.10;99.90
3684;DHT22;1858;48.716;9.648;2023-02-15T09:08:18;13.30;99.90
3684;DHT22;1858;48.716;9.648;2023-02-15T09:10:47;14.00;99.90
3684;DHT22;1858;48.716;9.648;2023-02-15T09:13:15;14.40;99.90
3684;DHT22;1858;48.716;9.648;2023-02-15T09:15:44;14.70;99.90
3684;DHT22;1858;48.716;9.648;2023-02-15T09:18:32;14.90;99.90
3684;DHT22;1858;48.716;9.648;2023-02-15T09:21:11;15.00;99.90
3684;DHT22;1858;48.716;9.648;2023-02-15T09:26:34;16.10;99.90
3684;DHT22;1858;48.716;9.648;2023-02-15T09:29:03;17.00;99.90
3684;DHT22;1858;48.716;9.648;2023-02-15T09:31:36;18.20;99.90
3684;DHT22;1858;48.716;9.648;2023-02-15T09:34:03;19.40;99.90
3684;DHT22;1858;48.716;9.648;2023-02-15T09:36:34;20.20;99.90
3684;DHT22;1858;48.716;9.648;2023-02-15T09:39:17;20.90;99.90
3684;DHT22;1858;48.716;9.648;2023-02-15T09:54:00;22.90;99.90
3684;DHT22;1858;48.716;9.648;2023-02-15T09:56:45;23.30;99.90
3684;DHT22;1858;48.716;9.648;2023-02-15T10:18:49;22.40;99.90
3684;DHT22;1858;48.716;9.648;2023-02-15T10:21:54;22.30;99.90
3684;DHT22;1858;48.716;9.648;2023-02-15T10:24:35;22.20;99.90
3684;DHT22;1858;48.716;9.648;2023-02-15T10:27:13;22.00;99.90
3684;DHT22;1858;48.716;9.648;2023-02-15T10:30:15;22.00;99.90
3684;DHT22;1858;48.716;9.648;2023-02-15T10:32:59;21.40;99.90
3684;DHT22;1858;48.716;9.648;2023-02-15T10:45:19;19.40;99.90
3684;DHT22;1858;48.716;9.648;2023-02-15T10:50:40;17.60;99.90
3684;DHT22;1858;48.716;9.648;2023-02-15T11:07:38;15.10;99.90
3684;DHT22;1858;48.716;9.648;2023-02-15T11:13:18;14.10;99.90
3684;DHT22;1858;48.716;9.648;2023-02-15T11:18:50;13.20;99.90
3684;DHT22;1858;48.716;9.648;2023-02-15T11:22:01;13.10;99.90
3684;DHT22;1858;48.716;9.648;2023-02-15T11:24:32;12.70;99.90
3684;DHT22;1858;48.716;9.648;2023-02-15T11:30:05;12.30;99.90
3684;DHT22;1858;48.716;9.648;2023-02-15T11:32:58;12.10;99.90
3684;DHT22;1858;48.716;9.648;2023-02-15T11:35:37;12.00;99.90
3684;DHT22;1858;48.716;9.648;2023-02-15T11:38:06;11.80;99.90
3684;DHT22;1858;48.716;9.648;2023-02-15T11:41:24;11.60;99.90
3684;DHT22;1858;48.716;9.648;2023-02-15T11:43:16;11.50;99.90
3684;DHT22;1858;48.716;9.648;2023-02-15T11:48:33;11.30;99.90
3684;DHT22;1858;48.716;9.648;2023-02-15T11:51:02;11.30;99.90
3684;DHT22;1858;48.716;9.648;2023-02-15T11:53:50;11.20;99.90
3684;DHT22;1858;48.716;9.648;2023-02-15T11:56:21;11.30;99.90
3684;DHT22;1858;48.716;9.648;2023-02-15T11:59:11;11.60;99.90
3684;DHT22;1858;48.716;9.648;2023-02-15T12:01:50;11.90;99.90
3684;DHT22;1858;48.716;9.648;2023-02-15T12:15:46;12.40;99.90
3684;DHT22;1858;48.716;9.648;2023-02-15T12:18:39;12.50;99.90
3684;DHT22;1858;48.716;9.648;2023-02-15T12:21:23;12.60;99.90
3684;DHT22;1858;48.716;9.648;2023-02-15T12:23:48;12.50;99.90
3684;DHT22;1858;48.716;9.648;2023-02-15T12:26:25;12.50;99.90
3684;DHT22;1858;48.716;9.648;2023-02-15T12:31:50;12.50;99.90
3684;DHT22;1858;48.716;9.648;2023-02-15T12:34:22;12.50;99.90
3684;DHT22;1858;48.716;9.648;2023-02-15T12:36:53;12.50;99.90
3684;DHT22;1858;48.716;9.648;2023-02-15T12:39:27;12.40;99.90
3684;DHT22;1858;48.716;9.648;2023-02-15T12:45:02;12.50;99.90
3684;DHT22;1858;48.716;9.648;2023-02-15T12:47:31;12.60;99.90
3684;DHT22;1858;48.716;9.648;2023-02-15T12:50:12;12.40;99.90
3684;DHT22;1858;48.716;9.648;2023-02-15T12:55:32;12.50;99.90
3684;DHT22;1858;48.716;9.648;2023-02-15T12:58:21;12.50;99.90
3684;DHT22;1858;48.716;9.648;2023-02-15T13:01:18;12.50;99.90
3684;DHT22;1858;48.716;9.648;2023-02-15T13:04:03;12.60;99.90
3684;DHT22;1858;48.716;9.648;2023-02-15T13:06:34;12.70;99.90
3684;DHT22;1858;48.716;9.648;2023-02-15T13:09:17;12.70;99.90
3684;DHT22;1858;48.716;9.648;2023-02-15T13:11:47;12.80;99.90
3684;DHT22;1858;48.716;9.648;2023-02-15T13:14:33;12.80;99.90
3684;DHT22;1858;48.716;9.648;2023-02-15T13:17:04;12.90;99.90
3684;DHT22;1858;48.716;9.648;2023-02-15T13:19:39;13.00;99.90
3684;DHT22;1858;48.716;9.648;2023-02-15T13:22:10;13.00;99.90
3684;DHT22;1858;48.716;9.648;2023-02-15T13:24:44;13.10;99.90
3684;DHT22;1858;48.716;9.648;2023-02-15T13:30:10;13.20;99.90
3684;DHT22;1858;48.716;9.648;2023-02-15T13:32:36;13.30;99.90
3684;DHT22;1858;48.716;9.648;2023-02-15T13:35:24;13.30;99.90
3684;DHT22;1858;48.716;9.648;2023-02-15T13:41:25;13.30;99.90
3684;DHT22;1858;48.716;9.648;2023-02-15T13:53:32;13.30;99.90
3684;DHT22;1858;48.716;9.648;2023-02-15T13:56:02;13.30;99.90
3684;DHT22;1858;48.716;9.648;2023-02-15T14:11:10;13.40;99.90
3684;DHT22;1858;48.716;9.648;2023-02-15T14:13:44;13.40;99.90
3684;DHT22;1858;48.716;9.648;2023-02-15T14:19:25;13.30;99.90
3684;DHT22;1858;48.716;9.648;2023-02-15T14:30:38;13.30;99.90
3684;DHT22;1858;48.716;9.648;2023-02-15T14:33:19;13.30;99.90
3684;DHT22;1858;48.716;9.648;2023-02-15T14:35:37;13.20;99.90
3684;DHT22;1858;48.716;9.648;2023-02-15T14:38:14;13.20;99.90
3684;DHT22;1858;48.716;9.648;2023-02-15T14:41:06;13.10;99.90
3684;DHT22;1858;48.716;9.648;2023-02-15T14:47:12;13.10;99.90
3684;DHT22;1858;48.716;9.648;2023-02-15T14:49:38;13.10;99.90
3684;DHT22;1858;48.716;9.648;2023-02-15T14:52:09;13.00;99.90
3684;DHT22;1858;48.716;9.648;2023-02-15T14:57:22;12.90;99.90
3684;DHT22;1858;48.716;9.648;2023-02-15T15:00:03;12.90;99.90
3684;DHT22;1858;48.716;9.648;2023-02-15T15:02:48;12.90;99.90
3684;DHT22;1858;48.716;9.648;2023-02-15T15:05:35;12.90;99.90
3684;DHT22;1858;48.716;9.648;2023-02-15T15:17:05;12.60;99.90
3684;DHT22;1858;48.716;9.648;2023-02-15T15:46:21;12.00;99.90
3684;DHT22;1858;48.716;9.648;2023-02-15T15:48:55;11.80;99.90
3684;DHT22;1858;48.716;9.648;2023-02-15T16:02:56;11.40;99.90
3684;DHT22;1858;48.716;9.648;2023-02-15T16:05:25;11.30;99.90
3684;DHT22;1858;48.716;9.648;2023-02-15T16:07:53;11.20;99.90
3684;DHT22;1858;48.716;9.648;2023-02-15T16:10:24;11.10;99.90
3684;DHT22;1858;48.716;9.648;2023-02-15T16:15:51;10.90;99.90
3684;DHT22;1858;48.716;9.648;2023-02-15T16:18:25;10.90;99.90
3684;DHT22;1858;48.716;9.648;2023-02-15T16:20:57;10.80;99.90
3684;DHT22;1858;48.716;9.648;2023-02-15T16:26:37;10.60;99.90
3684;DHT22;1858;48.716;9.648;2023-02-15T16:29:12;10.50;99.90
3684;DHT22;1858;48.716;9.648;2023-02-15T16:31:32;10.40;99.90
3684;DHT22;1858;48.716;9.648;2023-02-15T16:34:01;10.30;99.90
3684;DHT22;1858;48.716;9.648;2023-02-15T16:36:31;10.30;99.90
3684;DHT22;1858;48.716;9.648;2023-02-15T16:39:16;10.20;99.90
3684;DHT22;1858;48.716;9.648;2023-02-15T16:41:40;10.10;99.90
3684;DHT22;1858;48.716;9.648;2023-02-15T16:44:18;10.00;99.90
3684;DHT22;1858;48.716;9.648;2023-02-15T16:46:50;9.90;99.90
3684;DHT22;1858;48.716;9.648;2023-02-15T16:49:22;9.80;99.90
3684;DHT22;1858;48.716;9.648;2023-02-15T16:52:03;9.70;99.90
3684;DHT22;1858;48.716;9.648;2023-02-15T16:54:34;9.60;99.90
3684;DHT22;1858;48.716;9.648;2023-02-15T16:57:02;9.50;99.90
3684;DHT22;1858;48.716;9.648;2023-02-15T16:59:41;9.30;99.90
3684;DHT22;1858;48.716;9.648;2023-02-15T17:02:32;9.20;99.90
3684;DHT22;1858;48.716;9.648;2023-02-15T17:05:07;9.10;99.90
3684;DHT22;1858;48.716;9.648;2023-02-15T17:07:33;8.80;99.90
3684;DHT22;1858;48.716;9.648;2023-02-15T17:10:15;8.80;99.90
3684;DHT22;1858;48.716;9.648;2023-02-15T17:15:36;8.60;99.90
3684;DHT22;1858;48.716;9.648;2023-02-15T17:18:10;8.50;99.90
3684;DHT22;1858;48.716;9.648;2023-02-15T17:20:39;8.20;99.90
3684;DHT22;1858;48.716;9.648;2023-02-15T17:23:27;8.10;99.90
3684;DHT22;1858;48.716;9.648;2023-02-15T17:26:26;8.00;99.90
3684;DHT22;1858;48.716;9.648;2023-02-15T17:28:59;8.00;99.90
3684;DHT22;1858;48.716;9.648;2023-02-15T17:31:32;7.90;99.90
3684;DHT22;1858;48.716;9.648;2023-02-15T17:34:01;7.80;99.90
3684;DHT22;1858;48.716;9.648;2023-02-15T17:36:30;7.80;99.90
3684;DHT22;1858;48.716;9.648;2023-02-15T17:39:19;7.80;99.90
3684;DHT22;1858;48.716;9.648;2023-02-15T17:41:49;7.70;99.90
3684;DHT22;1858;48.716;9.648;2023-02-15T17:44:19;7.70;99.90
3684;DHT22;1858;48.716;9.648;2023-02-15T17:46:47;7.60;99.90
3684;DHT22;1858;48.716;9.648;2023-02-15T17:49:22;7.50;99.90
3684;DHT22;1858;48.716;9.648;2023-02-15T17:51:50;7.50;99.90
3684;DHT22;1858;48.716;9.648;2023-02-15T17:54:19;7.50;99.90
3684;DHT22;1858;48.716;9.648;2023-02-15T17:57:13;7.40;99.90
3684;DHT22;1858;48.716;9.648;2023-02-15T17:59:41;7.20;99.90
3684;DHT22;1858;48.716;9.648;2023-02-15T18:02:31;7.20;99.90
3684;DHT22;1858;48.716;9.648;2023-02-15T18:05:17;7.10;99.90
3684;DHT22;1858;48.716;9.648;2023-02-15T18:08:04;7.00;99.90
3684;DHT22;1858;48.716;9.648;2023-02-15T18:10:51;6.80;99.90
3684;DHT22;1858;48.716;9.648;2023-02-15T18:13:37;6.70;99.90
3684;DHT22;1858;48.716;9.648;2023-02-15T18:16:21;6.50;99.90
3684;DHT22;1858;48.716;9.648;2023-02-15T18:18:37;6.50;99.90
3684;DHT22;1858;48.716;9.648;2023-02-15T18:21:06;6.40;99.90
3684;DHT22;1858;48.716;9.648;2023-02-15T18:23:34;6.30;99.90
3684;DHT22;1858;48.716;9.648;2023-02-15T18:26:03;6.20;99.90
3684;DHT22;1858;48.716;9.648;2023-02-15T18:28:32;6.20;99.90
3684;DHT22;1858;48.716;9.648;2023-02-15T18:31:00;6.20;99.90
3684;DHT22;1858;48.716;9.648;2023-02-15T18:33:39;6.10;99.90
3684;DHT22;1858;48.716;9.648;2023-02-15T18:36:16;6.10;99.90
3684;DHT22;1858;48.716;9.648;2023-02-15T18:38:39;6.00;99.90
3684;DHT22;1858;48.716;9.648;2023-02-15T18:41:13;6.00;99.90
3684;DHT22;1858;48.716;9.648;2023-02-15T18:43:39;6.00;99.90
3684;DHT22;1858;48.716;9.648;2023-02-15T18:46:07;6.00;99.90
3684;DHT22;1858;48.716;9.648;2023-02-15T18:48:55;6.00;99.90
3684;DHT22;1858;48.716;9.648;2023-02-15T18:51:24;6.00;99.90
3684;DHT22;1858;48.716;9.648;2023-02-15T18:53:52;6.00;99.90
3684;DHT22;1858;48.716;9.648;2023-02-15T18:56:21;6.00;99.90
3684;DHT22;1858;48.716;9.648;2023-02-15T18:58:50;5.90;99.90
3684;DHT22;1858;48.716;9.648;2023-02-15T19:01:20;5.90;99.90
3684;DHT22;1858;48.716;9.648;2023-02-15T19:03:50;5.80;99.90
3684;DHT22;1858;48.716;9.648;2023-02-15T19:06:20;5.70;99.90
3684;DHT22;1858;48.716;9.648;2023-02-15T19:08:52;5.60;99.90
3684;DHT22;1858;48.716;9.648;2023-02-15T19:14:19;5.20;99.90
3684;DHT22;1858;48.716;9.648;2023-02-15T19:16:42;5.10;99.90
3684;DHT22;1858;48.716;9.648;2023-02-15T19:19:10;5.00;1.00
3684;DHT22;1858;48.716;9.648;2023-02-15T19:21:38;5.00;1.00
3684;DHT22;1858;48.716;9.648;2023-02-15T19:24:12;5.00;1.00
3684;DHT22;1858;48.716;9.648;2023-02-15T19:26:39;5.00;1.00
3684;DHT22;1858;48.716;9.648;2023-02-15T19:29:14;5.00;1.00
3684;DHT22;1858;48.716;9.648;2023-02-15T19:31:43;4.90;1.00
3684;DHT22;1858;48.716;9.648;2023-02-15T19:34:17;4.90;1.00
3684;DHT22;1858;48.716;9.648;2023-02-15T19:36:47;4.90;1.00
3684;DHT22;1858;48.716;9.648;2023-02-15T19:39:22;4.90;1.00
3684;DHT22;1858;48.716;9.648;2023-02-15T19:41:52;5.00;1.00
3684;DHT22;1858;48.716;9.648;2023-02-15T19:44:21;5.20;1.00
3684;DHT22;1858;48.716;9.648;2023-02-15T19:46:49;5.20;1.00
3684;DHT22;1858;48.716;9.648;2023-02-15T19:49:17;5.30;1.00
3684;DHT22;1858;48.716;9.648;2023-02-15T19:51:46;5.30;1.00
3684;DHT22;1858;48.716;9.648;2023-02-15T19:57:14;5.40;1.00
3684;DHT22;1858;48.716;9.648;2023-02-15T19:59:42;5.50;1.00
3684;DHT22;1858;48.716;9.648;2023-02-15T20:05:03;5.10;1.00
3684;DHT22;1858;48.716;9.648;2023-02-15T20:07:31;5.00;1.00
3684;DHT22;1858;48.716;9.648;2023-02-15T20:09:59;5.00;1.00
3684;DHT22;1858;48.716;9.648;2023-02-15T20:12:28;4.90;1.00
3684;DHT22;1858;48.716;9.648;2023-02-15T20:14:57;4.80;1.00
3684;DHT22;1858;48.716;9.648;2023-02-15T20:17:27;4.80;1.00
3684;DHT22;1858;48.716;9.648;2023-02-15T20:19:55;4.80;6.20
3684;DHT22;1858;48.716;9.648;2023-02-15T20:22:25;4.70;18.80
3684;DHT22;1858;48.716;9.648;2023-02-15T20:24:55;4.80;18.60
3684;DHT22;1858;48.716;9.648;2023-02-15T20:27:25;4.80;1.00
3684;DHT22;1858;48.716;9.648;2023-02-15T20:29:53;4.80;1.00
3684;DHT22;1858;48.716;9.648;2023-02-15T20:32:32;4.60;1.00
3684;DHT22;1858;48.716;9.648;2023-02-15T20:35:00;4.60;1.00
3684;DHT22;1858;48.716;9.648;2023-02-15T20:37:30;4.40;1.00
3684;DHT22;1858;48.716;9.648;2023-02-15T20:39:58;4.40;1.00
3684;DHT22;1858;48.716;9.648;2023-02-15T20:42:27;4.30;1.00
3684;DHT22;1858;48.716;9.648;2023-02-15T20:44:55;4.20;1.00
3684;DHT22;1858;48.716;9.648;2023-02-15T20:47:24;4.10;1.00
3684;DHT22;1858;48.716;9.648;2023-02-15T20:49:52;3.90;1.00
3684;DHT22;1858;48.716;9.648;2023-02-15T20:52:20;3.90;1.00
3684;DHT22;1858;48.716;9.648;2023-02-15T20:54:49;3.70;1.00
3684;DHT22;1858;48.716;9.648;2023-02-15T20:57:18;3.70;1.00
3684;DHT22;1858;48.716;9.648;2023-02-15T20:59:46;3.80;1.00
3684;DHT22;1858;48.716;9.648;2023-02-15T21:02:21;3.80;1.00
3684;DHT22;1858;48.716;9.648;2023-02-15T21:04:47;3.70;1.00